sensor_id;sensor_type;location;lat;lon;timestamp;temperature;humidity
41720;DHT22;27405;53.316;-6.294;2024-03-02T00:00:19;4.70;99.90
41720;DHT22;27405;53.316;-6.294;2024-03-02T00:02:48;4.70;99.90
41720;DHT22;27405;53.316;-6.294;2024-03-02T00:05:16;4.60;99.90
41720;DHT22;27405;53.316;-6.294;2024-03-02T00:07:44;4.60;99.90
41720;DHT22;27405;53.316;-6.294;2024-03-02T00:10:14;4.60;99.90
41720;DHT22;27405;53.316;-6.294;2024-03-02T00:12:42;4.60;99.90
41720;DHT22;27405;53.316;-6.294;2024-03-02T00:17:58;4.50;99.90
41720;DHT22;27405;53.316;-6.294;2024-03-02T00:20:27;4.50;99.90
41720;DHT22;27405;53.316;-6.294;2024-03-02T00:23:02;4.50;99.90
41720;DHT22;27405;53.316;-6.294;2024-03-02T00:28:02;4.40;99.90
41720;DHT22;27405;53.316;-6.294;2024-03-02T00:33:10;4.30;99.90
41720;DHT22;27405;53.316;-6.294;2024-03-02T00:35:36;4.30;99.90
41720;DHT22;27405;53.316;-6.294;2024-03-02T00:38:06;4.30;99.90
41720;DHT22;27405;53.316;-6.294;2024-03-02T00:40:32;4.20;99.90
41720;DHT22;27405;53.316;-6.294;2024-03-02T00:42:58;4.20;99.90
41720;DHT22;27405;53.316;-6.294;2024-03-02T00:45:25;4.20;99.90
41720;DHT22;27405;53.316;-6.294;2024-03-02T00:47:52;4.20;99.90
41720;DHT22;27405;53.316;-6.294;2024-03-02T00:50:19;4.10;99.90
41720;DHT22;27405;53.316;-6.294;2024-03-02T00:52:46;4.10;99.90
41720;DHT22;27405;53.316;-6.294;2024-03-02T00:55:14;4.10;99.90
41720;DHT22;27405;53.316;-6.294;2024-03-02T00:57:40;4.10;99.90
41720;DHT22;27405;53.316;-6.294;2024-03-02T01:00:06;4.00;99.90
41720;DHT22;27405;53.316;-6.294;2024-03-02T01:02:36;4.00;99.90
41720;DHT22;27405;53.316;-6.294;2024-03-02T01:05:02;4.00;99.90
41720;DHT22;27405;53.316;-6.294;2024-03-02T01:07:28;3.90;99.90
41720;DHT22;27405;53.316;-6.294;2024-03-02T01:09:54;4.00;99.90
41720;DHT22;27405;53.316;-6.294;2024-03-02T01:12:19;3.90;99.90
41720;DHT22;27405;53.316;-6.294;2024-03-02T01:14:45;4.00;99.90
41720;DHT22;27405;53.316;-6.294;2024-03-02T01:17:11;4.00;99.90
41720;DHT22;27405;53.316;-6.294;2024-03-02T01:19:37;4.00;99.90
41720;DHT22;27405;53.316;-6.294;2024-03-02T01:22:05;4.00;99.90
41720;DHT22;27405;53.316;-6.294;2024-03-02T01:24:31;4.10;99.90
41720;DHT22;27405;53.316;-6.294;2024-03-02T01:26:57;4.10;99.90
41720;DHT22;27405;53.316;-6.294;2024-03-02T01:29:23;4.10;99.90
41720;DHT22;27405;53.316;-6.294;2024-03-02T01:31:49;4.10;99.90
41720;DHT22;27405;53.316;-6.294;2024-03-02T01:34:17;4.20;99.90
41720;DHT22;27405;53.316;-6.294;2024-03-02T01:36:43;4.20;99.90
41720;DHT22;27405;53.316;-6.294;2024-03-02T01:39:08;4.20;99.90
41720;DHT22;27405;53.316;-6.294;2024-03-02T01:41:35;4.20;99.90
41720;DHT22;27405;53.316;-6.294;2024-03-02T01:44:01;4.20;99.90
41720;DHT22;27405;53.316;-6.294;2024-03-02T01:46:27;4.20;99.90
41720;DHT22;27405;53.316;-6.294;2024-03-02T01:48:53;4.20;99.90
41720;DHT22;27405;53.316;-6.294;2024-03-02T01:51:19;4.10;99.90
41720;DHT22;27405;53.316;-6.294;2024-03-02T01:53:45;4.10;99.90
41720;DHT22;27405;53.316;-6.294;2024-03-02T01:56:11;4.10;99.90
41720;DHT22;27405;53.316;-6.294;2024-03-02T01:58:37;4.10;99.90
41720;DHT22;27405;53.316;-6.294;2024-03-02T02:01:03;4.10;99.90
41720;DHT22;27405;53.316;-6.294;2024-03-02T02:03:29;4.10;99.90
41720;DHT22;27405;53.316;-6.294;2024-03-02T02:05:55;4.00;99.90
41720;DHT22;27405;53.316;-6.294;2024-03-02T02:08:21;4.00;99.90
41720;DHT22;27405;53.316;-6.294;2024-03-02T02:10:47;4.00;99.90
41720;DHT22;27405;53.316;-6.294;2024-03-02T02:13:13;4.00;99.90
41720;DHT22;27405;53.316;-6.294;2024-03-02T02:15:39;3.90;99.90
41720;DHT22;27405;53.316;-6.294;2024-03-02T02:18:05;3.90;99.90
41720;DHT22;27405;53.316;-6.294;2024-03-02T02:20:31;3.90;99.90
41720;DHT22;27405;53.316;-6.294;2024-03-02T02:23:02;3.80;99.90
41720;DHT22;27405;53.316;-6.294;2024-03-02T02:25:28;3.80;99.90
41720;DHT22;27405;53.316;-6.294;2024-03-02T02:27:55;3.80;99.90
41720;DHT22;27405;53.316;-6.294;2024-03-02T02:30:26;3.70;99.90
41720;DHT22;27405;53.316;-6.294;2024-03-02T02:32:52;3.70;99.90
41720;DHT22;27405;53.316;-6.294;2024-03-02T02:35:18;3.70;99.90
41720;DHT22;27405;53.316;-6.294;2024-03-02T02:37:45;3.60;99.90
41720;DHT22;27405;53.316;-6.294;2024-03-02T02:40:12;3.60;99.90
41720;DHT22;27405;53.316;-6.294;2024-03-02T02:42:39;3.60;99.90
41720;DHT22;27405;53.316;-6.294;2024-03-02T02:45:06;3.50;99.90
41720;DHT22;27405;53.316;-6.294;2024-03-02T02:47:32;3.50;99.90
41720;DHT22;27405;53.316;-6.294;2024-03-02T02:50:03;3.50;99.90
41720;DHT22;27405;53.316;-6.294;2024-03-02T02:52:33;3.50;99.90
41720;DHT22;27405;53.316;-6.294;2024-03-02T02:55:02;3.50;99.90
41720;DHT22;27405;53.316;-6.294;2024-03-02T02:57:28;3.50;99.90
41720;DHT22;27405;53.316;-6.294;2024-03-02T02:59:56;3.40;99.90
41720;DHT22;27405;53.316;-6.294;2024-03-02T03:05:44;3.40;99.90
41720;DHT22;27405;53.316;-6.294;2024-03-02T03:11:32;3.40;99.90
41720;DHT22;27405;53.316;-6.294;2024-03-02T03:13:58;3.40;99.90
41720;DHT22;27405;53.316;-6.294;2024-03-02T03:16:25;3.40;99.90
41720;DHT22;27405;53.316;-6.294;2024-03-02T03:18:51;3.40;99.90
41720;DHT22;27405;53.316;-6.294;2024-03-02T03:21:19;3.40;99.90
41720;DHT22;27405;53.316;-6.294;2024-03-02T03:23:45;3.40;99.90
41720;DHT22;27405;53.316;-6.294;2024-03-02T03:26:11;3.40;99.90
41720;DHT22;27405;53.316;-6.294;2024-03-02T03:28:37;3.40;99.90
41720;DHT22;27405;53.316;-6.294;2024-03-02T03:31:03;3.40;99.90
41720;DHT22;27405;53.316;-6.294;2024-03-02T03:33:29;3.40;99.90
41720;DHT22;27405;53.316;-6.294;2024-03-02T03:35:55;3.40;99.90
41720;DHT22;27405;53.316;-6.294;2024-03-02T03:38:21;3.40;99.90
41720;DHT22;27405;53.316;-6.294;2024-03-02T03:40:47;3.40;99.90
41720;DHT22;27405;53.316;-6.294;2024-03-02T03:43:13;3.30;99.90
41720;DHT22;27405;53.316;-6.294;2024-03-02T03:45:39;3.30;99.90
41720;DHT22;27405;53.316;-6.294;2024-03-02T03:48:05;3.30;99.90
41720;DHT22;27405;53.316;-6.294;2024-03-02T03:50:31;3.20;99.90
41720;DHT22;27405;53.316;-6.294;2024-03-02T03:52:59;3.20;99.90
41720;DHT22;27405;53.316;-6.294;2024-03-02T03:55:25;3.20;99.90
41720;DHT22;27405;53.316;-6.294;2024-03-02T03:57:50;3.20;99.90
41720;DHT22;27405;53.316;-6.294;2024-03-02T04:00:17;3.20;99.90
41720;DHT22;27405;53.316;-6.294;2024-03-02T04:02:43;3.20;99.90
41720;DHT22;27405;53.316;-6.294;2024-03-02T04:05:09;3.20;99.90
41720;DHT22;27405;53.316;-6.294;2024-03-02T04:07:37;3.20;99.90
41720;DHT22;27405;53.316;-6.294;2024-03-02T04:10:10;3.10;99.90
41720;DHT22;27405;53.316;-6.294;2024-03-02T04:12:36;3.10;99.90
41720;DHT22;27405;53.316;-6.294;2024-03-02T04:15:04;3.10;99.90
41720;DHT22;27405;53.316;-6.294;2024-03-02T04:17:32;3.10;99.90
41720;DHT22;27405;53.316;-6.294;2024-03-02T04:19:59;3.10;99.90
41720;DHT22;27405;53.316;-6.294;2024-03-02T04:22:26;3.10;99.90
41720;DHT22;27405;53.316;-6.294;2024-03-02T04:24:53;3.10;99.90
41720;DHT22;27405;53.316;-6.294;2024-03-02T04:27:19;3.10;99.90
41720;DHT22;27405;53.316;-6.294;2024-03-02T04:29:45;3.10;99.90
41720;DHT22;27405;53.316;-6.294;2024-03-02T04:32:11;3.10;99.90
41720;DHT22;27405;53.316;-6.294;2024-03-02T04:34:37;3.10;99.90
41720;DHT22;27405;53.316;-6.294;2024-03-02T04:37:02;3.10;99.90
41720;DHT22;27405;53.316;-6.294;2024-03-02T04:39:28;3.10;99.90
41720;DHT22;27405;53.316;-6.294;2024-03-02T04:41:54;3.10;99.90
41720;DHT22;27405;53.316;-6.294;2024-03-02T04:44:20;3.10;99.90
41720;DHT22;27405;53.316;-6.294;2024-03-02T04:46:46;3.10;99.90
41720;DHT22;27405;53.316;-6.294;2024-03-02T04:49:12;3.10;99.90
41720;DHT22;27405;53.316;-6.294;2024-03-02T04:51:38;3.10;99.90
41720;DHT22;27405;53.316;-6.294;2024-03-02T04:54:04;3.10;99.90
41720;DHT22;27405;53.316;-6.294;2024-03-02T04:56:30;3.10;99.90
41720;DHT22;27405;53.316;-6.294;2024-03-02T05:02:37;3.00;99.90
41720;DHT22;27405;53.316;-6.294;2024-03-02T05:05:03;3.00;99.90
41720;DHT22;27405;53.316;-6.294;2024-03-02T05:07:29;3.00;99.90
41720;DHT22;27405;53.316;-6.294;2024-03-02T05:09:55;2.90;99.90
41720;DHT22;27405;53.316;-6.294;2024-03-02T05:12:21;2.90;99.90
41720;DHT22;27405;53.316;-6.294;2024-03-02T05:15:06;2.90;99.90
41720;DHT22;27405;53.316;-6.294;2024-03-02T05:17:33;2.90;99.90
41720;DHT22;27405;53.316;-6.294;2024-03-02T05:19:59;2.90;99.90
41720;DHT22;27405;53.316;-6.294;2024-03-02T05:22:25;2.80;99.90
41720;DHT22;27405;53.316;-6.294;2024-03-02T05:24:51;2.80;99.90
41720;DHT22;27405;53.316;-6.294;2024-03-02T05:27:16;2.80;99.90
41720;DHT22;27405;53.316;-6.294;2024-03-02T05:29:42;2.70;99.90
41720;DHT22;27405;53.316;-6.294;2024-03-02T05:32:09;2.70;99.90
41720;DHT22;27405;53.316;-6.294;2024-03-02T05:34:35;2.70;99.90
41720;DHT22;27405;53.316;-6.294;2024-03-02T05:37:01;2.70;99.90
41720;DHT22;27405;53.316;-6.294;2024-03-02T05:39:27;2.70;99.90
41720;DHT22;27405;53.316;-6.294;2024-03-02T05:41:54;2.70;99.90
41720;DHT22;27405;53.316;-6.294;2024-03-02T05:44:19;2.70;99.90
41720;DHT22;27405;53.316;-6.294;2024-03-02T05:46:46;2.80;99.90
41720;DHT22;27405;53.316;-6.294;2024-03-02T05:49:12;2.80;99.90
41720;DHT22;27405;53.316;-6.294;2024-03-02T05:51:38;2.80;99.90
41720;DHT22;27405;53.316;-6.294;2024-03-02T05:54:04;2.80;99.90
41720;DHT22;27405;53.316;-6.294;2024-03-02T05:56:30;2.80;99.90
41720;DHT22;27405;53.316;-6.294;2024-03-02T05:58:56;2.90;99.90
41720;DHT22;27405;53.316;-6.294;2024-03-02T06:01:45;2.90;99.90
41720;DHT22;27405;53.316;-6.294;2024-03-02T06:04:18;2.90;99.90
41720;DHT22;27405;53.316;-6.294;2024-03-02T06:06:44;2.90;99.90
41720;DHT22;27405;53.316;-6.294;2024-03-02T06:09:10;2.90;99.90
41720;DHT22;27405;53.316;-6.294;2024-03-02T06:11:41;2.90;99.90
41720;DHT22;27405;53.316;-6.294;2024-03-02T06:14:08;2.90;99.90
41720;DHT22;27405;53.316;-6.294;2024-03-02T06:16:34;2.90;99.90
41720;DHT22;27405;53.316;-6.294;2024-03-02T06:19:01;2.90;99.90
41720;DHT22;27405;53.316;-6.294;2024-03-02T06:21:27;2.80;99.90
41720;DHT22;27405;53.316;-6.294;2024-03-02T06:23:54;2.80;99.90
41720;DHT22;27405;53.316;-6.294;2024-03-02T06:26:20;2.80;99.90
41720;DHT22;27405;53.316;-6.294;2024-03-02T06:28:46;2.80;99.90
41720;DHT22;27405;53.316;-6.294;2024-03-02T06:31:12;2.80;99.90
41720;DHT22;27405;53.316;-6.294;2024-03-02T06:33:38;2.80;99.90
41720;DHT22;27405;53.316;-6.294;2024-03-02T06:36:05;2.70;99.90
41720;DHT22;27405;53.316;-6.294;2024-03-02T06:38:34;2.70;99.90
41720;DHT22;27405;53.316;-6.294;2024-03-02T06:41:00;2.70;99.90
41720;DHT22;27405;53.316;-6.294;2024-03-02T06:43:26;2.70;99.90
41720;DHT22;27405;53.316;-6.294;2024-03-02T06:45:52;2.60;99.90
41720;DHT22;27405;53.316;-6.294;2024-03-02T06:48:19;2.60;99.90
41720;DHT22;27405;53.316;-6.294;2024-03-02T06:50:50;2.60;99.90
41720;DHT22;27405;53.316;-6.294;2024-03-02T06:53:16;2.60;99.90
41720;DHT22;27405;53.316;-6.294;2024-03-02T06:55:46;2.50;99.90
41720;DHT22;27405;53.316;-6.294;2024-03-02T06:58:13;2.50;99.90
41720;DHT22;27405;53.316;-6.294;2024-03-02T07:00:43;2.50;99.90
41720;DHT22;27405;53.316;-6.294;2024-03-02T07:03:09;2.50;99.90
41720;DHT22;27405;53.316;-6.294;2024-03-02T07:05:35;2.50;99.90
41720;DHT22;27405;53.316;-6.294;2024-03-02T07:08:01;2.50;99.90
41720;DHT22;27405;53.316;-6.294;2024-03-02T07:10:29;2.50;99.90
41720;DHT22;27405;53.316;-6.294;2024-03-02T07:12:55;2.50;99.90
41720;DHT22;27405;53.316;-6.294;2024-03-02T07:15:20;2.50;99.90
41720;DHT22;27405;53.316;-6.294;2024-03-02T07:18:09;2.50;99.90
41720;DHT22;27405;53.316;-6.294;2024-03-02T07:20:35;2.50;99.90
41720;DHT22;27405;53.316;-6.294;2024-03-02T07:23:01;2.50;99.90
41720;DHT22;27405;53.316;-6.294;2024-03-02T07:25:27;2.50;99.90
41720;DHT22;27405;53.316;-6.294;2024-03-02T07:27:53;2.50;99.90
41720;DHT22;27405;53.316;-6.294;2024-03-02T07:30:19;2.50;99.90
41720;DHT22;27405;53.316;-6.294;2024-03-02T07:32:45;2.50;99.90
41720;DHT22;27405;53.316;-6.294;2024-03-02T07:35:14;2.50;99.90
41720;DHT22;27405;53.316;-6.294;2024-03-02T07:37:42;2.50;99.90
41720;DHT22;27405;53.316;-6.294;2024-03-02T07:40:09;2.60;99.90
41720;DHT22;27405;53.316;-6.294;2024-03-02T07:42:38;2.60;99.90
41720;DHT22;27405;53.316;-6.294;2024-03-02T07:45:05;2.60;99.90
41720;DHT22;27405;53.316;-6.294;2024-03-02T07:47:33;2.70;99.90
41720;DHT22;27405;53.316;-6.294;2024-03-02T07:49:59;2.70;99.90
41720;DHT22;27405;53.316;-6.294;2024-03-02T07:52:25;2.70;99.90
41720;DHT22;27405;53.316;-6.294;2024-03-02T07:54:51;2.80;99.90
41720;DHT22;27405;53.316;-6.294;2024-03-02T07:57:17;2.80;99.90
41720;DHT22;27405;53.316;-6.294;2024-03-02T07:59:43;2.80;99.90
41720;DHT22;27405;53.316;-6.294;2024-03-02T08:02:09;2.80;99.90
41720;DHT22;27405;53.316;-6.294;2024-03-02T08:04:36;2.90;99.90
41720;DHT22;27405;53.316;-6.294;2024-03-02T08:07:02;2.90;99.90
41720;DHT22;27405;53.316;-6.294;2024-03-02T08:09:29;2.90;99.90
41720;DHT22;27405;53.316;-6.294;2024-03-02T08:11:55;3.00;99.90
41720;DHT22;27405;53.316;-6.294;2024-03-02T08:14:24;3.00;99.90
41720;DHT22;27405;53.316;-6.294;2024-03-02T08:16:50;3.10;99.90
41720;DHT22;27405;53.316;-6.294;2024-03-02T08:19:16;3.10;99.90
41720;DHT22;27405;53.316;-6.294;2024-03-02T08:21:43;3.10;99.90
41720;DHT22;27405;53.316;-6.294;2024-03-02T08:24:09;3.20;99.90
41720;DHT22;27405;53.316;-6.294;2024-03-02T08:26:35;3.20;99.90
41720;DHT22;27405;53.316;-6.294;2024-03-02T08:29:01;3.30;99.90
41720;DHT22;27405;53.316;-6.294;2024-03-02T08:31:29;3.30;99.90
41720;DHT22;27405;53.316;-6.294;2024-03-02T08:33:55;3.40;99.90
41720;DHT22;27405;53.316;-6.294;2024-03-02T08:36:23;3.50;99.90
41720;DHT22;27405;53.316;-6.294;2024-03-02T08:38:52;3.50;99.90
41720;DHT22;27405;53.316;-6.294;2024-03-02T08:41:17;3.60;99.90
41720;DHT22;27405;53.316;-6.294;2024-03-02T08:43:44;3.60;99.90
41720;DHT22;27405;53.316;-6.294;2024-03-02T08:46:10;3.70;99.90
41720;DHT22;27405;53.316;-6.294;2024-03-02T08:48:36;3.70;99.90
41720;DHT22;27405;53.316;-6.294;2024-03-02T08:51:02;3.80;99.90
41720;DHT22;27405;53.316;-6.294;2024-03-02T08:53:30;3.80;99.90
41720;DHT22;27405;53.316;-6.294;2024-03-02T08:55:56;3.90;99.90
41720;DHT22;27405;53.316;-6.294;2024-03-02T08:58:22;3.90;99.90
41720;DHT22;27405;53.316;-6.294;2024-03-02T09:00:48;4.00;99.90
41720;DHT22;27405;53.316;-6.294;2024-03-02T09:03:15;4.10;99.90
41720;DHT22;27405;53.316;-6.294;2024-03-02T09:05:41;4.10;99.90
41720;DHT22;27405;53.316;-6.294;2024-03-02T09:08:08;4.20;99.90
41720;DHT22;27405;53.316;-6.294;2024-03-02T09:10:34;4.30;99.90
41720;DHT22;27405;53.316;-6.294;2024-03-02T09:13:00;4.40;99.90
41720;DHT22;27405;53.316;-6.294;2024-03-02T09:18:49;4.50;99.90
41720;DHT22;27405;53.316;-6.294;2024-03-02T09:21:15;4.60;99.90
41720;DHT22;27405;53.316;-6.294;2024-03-02T09:23:40;4.60;99.90
41720;DHT22;27405;53.316;-6.294;2024-03-02T09:26:07;4.60;99.90
41720;DHT22;27405;53.316;-6.294;2024-03-02T09:28:33;4.60;99.90
41720;DHT22;27405;53.316;-6.294;2024-03-02T09:31:01;4.70;99.90
41720;DHT22;27405;53.316;-6.294;2024-03-02T09:33:27;4.70;99.90
41720;DHT22;27405;53.316;-6.294;2024-03-02T09:35:52;4.80;99.90
41720;DHT22;27405;53.316;-6.294;2024-03-02T09:38:18;4.80;99.90
41720;DHT22;27405;53.316;-6.294;2024-03-02T09:40:45;4.90;99.90
41720;DHT22;27405;53.316;-6.294;2024-03-02T09:43:11;4.90;99.90
41720;DHT22;27405;53.316;-6.294;2024-03-02T09:45:37;4.90;99.90
41720;DHT22;27405;53.316;-6.294;2024-03-02T09:48:03;4.90;99.90
41720;DHT22;27405;53.316;-6.294;2024-03-02T09:50:29;5.10;99.90
41720;DHT22;27405;53.316;-6.294;2024-03-02T09:52:55;5.20;99.90
41720;DHT22;27405;53.316;-6.294;2024-03-02T09:55:22;5.30;99.90
41720;DHT22;27405;53.316;-6.294;2024-03-02T09:57:48;5.40;99.90
41720;DHT22;27405;53.316;-6.294;2024-03-02T10:00:15;5.50;99.90
41720;DHT22;27405;53.316;-6.294;2024-03-02T10:02:42;5.60;99.90
41720;DHT22;27405;53.316;-6.294;2024-03-02T10:05:09;5.60;99.90
41720;DHT22;27405;53.316;-6.294;2024-03-02T10:07:35;5.60;99.90
41720;DHT22;27405;53.316;-6.294;2024-03-02T10:10:13;5.60;99.90
41720;DHT22;27405;53.316;-6.294;2024-03-02T10:12:39;5.70;99.90
41720;DHT22;27405;53.316;-6.294;2024-03-02T10:15:05;5.70;99.90
41720;DHT22;27405;53.316;-6.294;2024-03-02T10:17:33;5.70;99.90
41720;DHT22;27405;53.316;-6.294;2024-03-02T10:19:59;5.80;99.90
41720;DHT22;27405;53.316;-6.294;2024-03-02T10:22:25;5.90;99.90
41720;DHT22;27405;53.316;-6.294;2024-03-02T10:24:52;6.00;99.90
41720;DHT22;27405;53.316;-6.294;2024-03-02T10:27:23;6.10;99.90
41720;DHT22;27405;53.316;-6.294;2024-03-02T10:33:13;6.20;99.90
41720;DHT22;27405;53.316;-6.294;2024-03-02T10:35:39;6.30;99.90
41720;DHT22;27405;53.316;-6.294;2024-03-02T10:38:06;6.30;99.90
41720;DHT22;27405;53.316;-6.294;2024-03-02T10:40:32;6.40;99.90
41720;DHT22;27405;53.316;-6.294;2024-03-02T10:43:00;6.40;99.90
41720;DHT22;27405;53.316;-6.294;2024-03-02T10:45:27;6.40;99.90
41720;DHT22;27405;53.316;-6.294;2024-03-02T10:47:54;6.40;99.90
41720;DHT22;27405;53.316;-6.294;2024-03-02T10:50:20;6.50;99.90
41720;DHT22;27405;53.316;-6.294;2024-03-02T10:52:46;6.50;99.90
41720;DHT22;27405;53.316;-6.294;2024-03-02T10:55:12;6.50;99.90
41720;DHT22;27405;53.316;-6.294;2024-03-02T10:57:52;6.60;99.90
41720;DHT22;27405;53.316;-6.294;2024-03-02T11:00:19;6.60;99.90
41720;DHT22;27405;53.316;-6.294;2024-03-02T11:02:52;6.60;99.90
41720;DHT22;27405;53.316;-6.294;2024-03-02T11:05:27;6.70;99.90
41720;DHT22;27405;53.316;-6.294;2024-03-02T11:08:00;6.70;99.90
41720;DHT22;27405;53.316;-6.294;2024-03-02T11:10:34;6.80;99.90
41720;DHT22;27405;53.316;-6.294;2024-03-02T11:13:05;6.80;99.90
41720;DHT22;27405;53.316;-6.294;2024-03-02T11:15:31;6.80;99.90
41720;DHT22;27405;53.316;-6.294;2024-03-02T11:18:01;6.80;99.90
41720;DHT22;27405;53.316;-6.294;2024-03-02T11:20:27;6.80;99.90
41720;DHT22;27405;53.316;-6.294;2024-03-02T11:22:55;6.80;99.90
41720;DHT22;27405;53.316;-6.294;2024-03-02T11:25:28;6.70;99.90
41720;DHT22;27405;53.316;-6.294;2024-03-02T11:33:05;6.80;99.90
41720;DHT22;27405;53.316;-6.294;2024-03-02T11:35:38;6.90;99.90
41720;DHT22;27405;53.316;-6.294;2024-03-02T11:38:07;7.00;99.90
41720;DHT22;27405;53.316;-6.294;2024-03-02T11:40:34;7.10;99.90
41720;DHT22;27405;53.316;-6.294;2024-03-02T11:43:01;7.20;99.90
41720;DHT22;27405;53.316;-6.294;2024-03-02T11:45:28;7.20;99.90
41720;DHT22;27405;53.316;-6.294;2024-03-02T11:47:55;7.20;99.90
41720;DHT22;27405;53.316;-6.294;2024-03-02T11:53:05;7.40;99.90
41720;DHT22;27405;53.316;-6.294;2024-03-02T11:55:37;7.50;99.90
41720;DHT22;27405;53.316;-6.294;2024-03-02T11:58:05;7.50;99.90
41720;DHT22;27405;53.316;-6.294;2024-03-02T12:00:31;7.50;99.90
41720;DHT22;27405;53.316;-6.294;2024-03-02T12:03:02;7.40;99.90
41720;DHT22;27405;53.316;-6.294;2024-03-02T12:05:28;7.40;99.90
41720;DHT22;27405;53.316;-6.294;2024-03-02T12:08:00;7.40;99.90
41720;DHT22;27405;53.316;-6.294;2024-03-02T12:10:27;7.50;99.90
41720;DHT22;27405;53.316;-6.294;2024-03-02T12:16:23;7.40;99.90
41720;DHT22;27405;53.316;-6.294;2024-03-02T12:18:49;7.40;99.90
41720;DHT22;27405;53.316;-6.294;2024-03-02T12:21:15;7.40;99.90
41720;DHT22;27405;53.316;-6.294;2024-03-02T12:23:41;7.40;99.90
41720;DHT22;27405;53.316;-6.294;2024-03-02T12:26:07;7.40;99.90
41720;DHT22;27405;53.316;-6.294;2024-03-02T12:28:34;7.40;99.90
41720;DHT22;27405;53.316;-6.294;2024-03-02T12:34:22;7.40;99.90
41720;DHT22;27405;53.316;-6.294;2024-03-02T12:36:49;7.50;99.90
41720;DHT22;27405;53.316;-6.294;2024-03-02T12:39:19;7.60;99.90
41720;DHT22;27405;53.316;-6.294;2024-03-02T12:41:46;7.70;99.90
41720;DHT22;27405;53.316;-6.294;2024-03-02T12:44:12;7.80;99.90
41720;DHT22;27405;53.316;-6.294;2024-03-02T12:46:38;7.90;99.90
41720;DHT22;27405;53.316;-6.294;2024-03-02T12:49:09;8.00;99.90
41720;DHT22;27405;53.316;-6.294;2024-03-02T12:51:42;8.00;99.90
41720;DHT22;27405;53.316;-6.294;2024-03-02T12:54:11;8.00;99.90
41720;DHT22;27405;53.316;-6.294;2024-03-02T12:56:37;7.80;99.90
41720;DHT22;27405;53.316;-6.294;2024-03-02T13:02:30;7.50;99.90
41720;DHT22;27405;53.316;-6.294;2024-03-02T13:04:57;7.50;99.90
41720;DHT22;27405;53.316;-6.294;2024-03-02T13:07:24;7.50;99.90
41720;DHT22;27405;53.316;-6.294;2024-03-02T13:09:51;7.60;99.90
41720;DHT22;27405;53.316;-6.294;2024-03-02T13:12:18;7.90;99.90
41720;DHT22;27405;53.316;-6.294;2024-03-02T13:14:47;8.10;99.90
41720;DHT22;27405;53.316;-6.294;2024-03-02T13:17:13;8.20;99.90
41720;DHT22;27405;53.316;-6.294;2024-03-02T13:20:00;8.30;99.90
41720;DHT22;27405;53.316;-6.294;2024-03-02T13:22:26;8.30;99.90
41720;DHT22;27405;53.316;-6.294;2024-03-02T13:24:53;8.40;99.90
41720;DHT22;27405;53.316;-6.294;2024-03-02T13:30:44;8.40;99.90
41720;DHT22;27405;53.316;-6.294;2024-03-02T13:33:10;8.40;99.90
41720;DHT22;27405;53.316;-6.294;2024-03-02T13:35:36;8.40;99.90
41720;DHT22;27405;53.316;-6.294;2024-03-02T13:38:02;8.50;99.90
41720;DHT22;27405;53.316;-6.294;2024-03-02T13:40:28;8.60;99.90
41720;DHT22;27405;53.316;-6.294;2024-03-02T13:42:56;8.50;99.90
41720;DHT22;27405;53.316;-6.294;2024-03-02T13:45:22;8.50;99.90
41720;DHT22;27405;53.316;-6.294;2024-03-02T13:47:48;8.50;99.90
41720;DHT22;27405;53.316;-6.294;2024-03-02T13:50:14;8.40;99.90
41720;DHT22;27405;53.316;-6.294;2024-03-02T13:52:40;8.40;99.90
41720;DHT22;27405;53.316;-6.294;2024-03-02T13:55:07;8.50;99.90
41720;DHT22;27405;53.316;-6.294;2024-03-02T13:57:33;8.50;99.90
41720;DHT22;27405;53.316;-6.294;2024-03-02T13:59:59;8.40;99.90
41720;DHT22;27405;53.316;-6.294;2024-03-02T14:02:25;8.40;99.90
41720;DHT22;27405;53.316;-6.294;2024-03-02T14:04:52;8.30;99.90
41720;DHT22;27405;53.316;-6.294;2024-03-02T14:07:18;8.40;99.90
41720;DHT22;27405;53.316;-6.294;2024-03-02T14:09:44;8.50;99.90
41720;DHT22;27405;53.316;-6.294;2024-03-02T14:12:10;8.60;99.90
41720;DHT22;27405;53.316;-6.294;2024-03-02T14:14:39;8.70;99.90
41720;DHT22;27405;53.316;-6.294;2024-03-02T14:17:05;8.80;99.90
41720;DHT22;27405;53.316;-6.294;2024-03-02T14:19:32;9.00;99.90
41720;DHT22;27405;53.316;-6.294;2024-03-02T14:21:59;9.10;99.90
41720;DHT22;27405;53.316;-6.294;2024-03-02T14:24:25;9.10;99.90
41720;DHT22;27405;53.316;-6.294;2024-03-02T14:26:54;9.20;99.90
41720;DHT22;27405;53.316;-6.294;2024-03-02T14:29:22;9.20;99.90
41720;DHT22;27405;53.316;-6.294;2024-03-02T14:31:48;9.10;99.90
41720;DHT22;27405;53.316;-6.294;2024-03-02T14:34:15;9.10;99.90
41720;DHT22;27405;53.316;-6.294;2024-03-02T14:36:42;9.00;99.90
41720;DHT22;27405;53.316;-6.294;2024-03-02T14:39:11;8.80;99.90
41720;DHT22;27405;53.316;-6.294;2024-03-02T14:41:37;8.60;99.90
41720;DHT22;27405;53.316;-6.294;2024-03-02T14:44:03;8.50;99.90
41720;DHT22;27405;53.316;-6.294;2024-03-02T14:46:30;8.30;99.90
41720;DHT22;27405;53.316;-6.294;2024-03-02T14:48:56;8.20;99.90
41720;DHT22;27405;53.316;-6.294;2024-03-02T14:51:23;8.10;99.90
41720;DHT22;27405;53.316;-6.294;2024-03-02T14:53:50;8.10;99.90
41720;DHT22;27405;53.316;-6.294;2024-03-02T14:56:16;8.30;99.90
41720;DHT22;27405;53.316;-6.294;2024-03-02T14:58:42;8.50;99.90
41720;DHT22;27405;53.316;-6.294;2024-03-02T15:01:08;8.70;99.90
41720;DHT22;27405;53.316;-6.294;2024-03-02T15:03:35;8.80;99.90
41720;DHT22;27405;53.316;-6.294;2024-03-02T15:06:02;8.80;99.90
41720;DHT22;27405;53.316;-6.294;2024-03-02T15:08:29;8.70;99.90
41720;DHT22;27405;53.316;-6.294;2024-03-02T15:10:55;8.50;99.90
41720;DHT22;27405;53.316;-6.294;2024-03-02T15:13:23;8.40;99.90
41720;DHT22;27405;53.316;-6.294;2024-03-02T15:15:51;8.30;99.90
41720;DHT22;27405;53.316;-6.294;2024-03-02T15:18:18;8.20;99.90
41720;DHT22;27405;53.316;-6.294;2024-03-02T15:20:44;8.20;99.90
41720;DHT22;27405;53.316;-6.294;2024-03-02T15:23:10;8.20;99.90
41720;DHT22;27405;53.316;-6.294;2024-03-02T15:25:36;8.10;99.90
41720;DHT22;27405;53.316;-6.294;2024-03-02T15:28:02;8.10;99.90
41720;DHT22;27405;53.316;-6.294;2024-03-02T15:30:29;8.10;99.90
41720;DHT22;27405;53.316;-6.294;2024-03-02T15:32:55;8.10;99.90
41720;DHT22;27405;53.316;-6.294;2024-03-02T15:35:21;8.10;99.90
41720;DHT22;27405;53.316;-6.294;2024-03-02T15:41:09;8.20;99.90
41720;DHT22;27405;53.316;-6.294;2024-03-02T15:43:35;8.10;99.90
41720;DHT22;27405;53.316;-6.294;2024-03-02T15:46:04;8.10;99.90
41720;DHT22;27405;53.316;-6.294;2024-03-02T15:48:30;8.10;99.90
41720;DHT22;27405;53.316;-6.294;2024-03-02T15:50:58;8.10;99.90
41720;DHT22;27405;53.316;-6.294;2024-03-02T15:53:24;8.10;99.90
41720;DHT22;27405;53.316;-6.294;2024-03-02T15:55:51;8.00;99.90
41720;DHT22;27405;53.316;-6.294;2024-03-02T15:58:17;7.90;99.90
41720;DHT22;27405;53.316;-6.294;2024-03-02T16:00:43;7.90;99.90
41720;DHT22;27405;53.316;-6.294;2024-03-02T16:03:09;7.90;99.90
41720;DHT22;27405;53.316;-6.294;2024-03-02T16:05:36;7.80;99.90
41720;DHT22;27405;53.316;-6.294;2024-03-02T16:08:02;7.80;99.90
41720;DHT22;27405;53.316;-6.294;2024-03-02T16:10:29;7.70;99.90
41720;DHT22;27405;53.316;-6.294;2024-03-02T16:12:55;7.60;99.90
41720;DHT22;27405;53.316;-6.294;2024-03-02T16:15:26;7.60;99.90
41720;DHT22;27405;53.316;-6.294;2024-03-02T16:17:52;7.60;99.90